Time;durP1;ratioP1;P1;durP2;ratioP2;P2;SDS_P1;SDS_P2;PMS_P1;PMS_P2;Temp;Humidity;BMP_temperature;BMP_pressure;BME280_temperature;BME280_humidity;BME280_pressure;Samples;Min_cycle;Max_cycle;Signal;HPM_P1;HPM_P2
2024/01/26 00:01:54;;;;;;;36.85;19.80;;;;;;;17.97;100.00;101978.69;4995515;28;20060;-50
2024/01/26 00:04:21;;;;;;;37.55;18.88;;;;;;;17.98;100.00;101987.91;4993054;28;20425;-51
2024/01/26 00:06:48;;;;;;;38.80;18.77;;;;;;;17.94;100.00;101981.56;4998189;28;20076;-46
2024/01/26 00:09:15;;;;;;;37.22;17.30;;;;;;;17.97;100.00;101969.44;4992585;28;20178;-45
2024/01/26 00:11:43;;;;;;;37.95;18.75;;;;;;;17.97;100.00;101980.69;4994326;28;20080;-44
2024/01/26 00:14:10;;;;;;;36.70;18.10;;;;;;;17.96;100.00;101973.50;4994707;28;20097;-45
2024/01/26 00:16:37;;;;;;;35.13;17.02;;;;;;;17.97;100.00;101977.88;4994460;28;20046;-46
2024/01/26 00:19:05;;;;;;;35.88;17.75;;;;;;;17.95;100.00;101978.31;4994392;28;20902;-44
2024/01/26 00:21:32;;;;;;;34.28;17.27;;;;;;;17.96;100.00;101970.69;4994989;28;20050;-45
2024/01/26 00:23:59;;;;;;;34.20;16.73;;;;;;;17.95;100.00;101975.50;4993652;28;20058;-47
2024/01/26 00:26:25;;;;;;;31.98;16.33;;;;;;;17.95;100.00;101971.94;4991020;28;20066;-45
2024/01/26 00:28:52;;;;;;;30.20;15.63;;;;;;;17.96;100.00;101965.81;4997421;28;20046;-46
2024/01/26 00:31:19;;;;;;;30.27;15.82;;;;;;;17.97;100.00;101963.81;4993941;28;20548;-45
2024/01/26 00:33:46;;;;;;;29.33;14.82;;;;;;;17.98;100.00;101968.22;4993222;28;20049;-45
2024/01/26 00:36:13;;;;;;;30.75;15.10;;;;;;;17.98;100.00;101965.41;4993627;28;20528;-49
2024/01/26 00:38:40;;;;;;;33.13;15.70;;;;;;;17.98;100.00;101962.56;4993393;28;20074;-48
2024/01/26 00:41:07;;;;;;;31.77;14.75;;;;;;;17.97;100.00;101958.19;4994457;28;20529;-49
2024/01/26 00:43:34;;;;;;;28.17;13.63;;;;;;;17.98;100.00;101962.56;4991637;28;20054;-46
2024/01/26 00:46:00;;;;;;;32.03;15.02;;;;;;;17.95;100.00;101961.44;4995457;28;20145;-46
2024/01/26 00:48:27;;;;;;;31.88;14.85;;;;;;;17.94;100.00;101965.50;4991985;28;20113;-47
2024/01/26 00:50:54;;;;;;;28.98;13.70;;;;;;;17.96;100.00;101954.56;4990381;28;20046;-50
2024/01/26 00:53:22;;;;;;;29.42;13.25;;;;;;;17.96;100.00;101953.81;4990664;28;20046;-48
2024/01/26 00:55:49;;;;;;;29.98;12.90;;;;;;;17.96;100.00;101959.44;4996330;28;20065;-46
2024/01/26 00:58:16;;;;;;;26.70;13.02;;;;;;;17.96;100.00;101953.81;4990529;28;20533;-45
2024/01/26 01:00:42;;;;;;;28.77;13.68;;;;;;;17.97;100.00;101956.19;5000977;28;20054;-47
2024/01/26 01:03:09;;;;;;;29.35;13.18;;;;;;;17.95;100.00;101947.38;4997754;28;20058;-47
2024/01/26 01:05:35;;;;;;;27.25;13.27;;;;;;;17.95;100.00;101952.22;4999166;28;20497;-45
2024/01/26 01:08:02;;;;;;;29.52;13.57;;;;;;;17.96;100.00;101951.00;4998780;28;20073;-46
2024/01/26 01:10:30;;;;;;;29.15;13.13;;;;;;;17.93;100.00;101949.03;4996738;28;20055;-46
2024/01/26 01:12:57;;;;;;;27.00;12.85;;;;;;;17.97;100.00;101942.13;4995366;28;20073;-46
2024/01/26 01:15:23;;;;;;;28.77;13.77;;;;;;;17.97;100.00;101938.50;4991417;28;20112;-49
2024/01/26 01:17:50;;;;;;;28.17;13.43;;;;;;;17.95;100.00;101935.34;4991546;28;20078;-45
2024/01/26 01:20:17;;;;;;;28.85;12.55;;;;;;;17.93;100.00;101926.50;4991223;28;20050;-45
2024/01/26 01:22:47;;;;;;;25.60;12.25;;;;;;;17.92;100.00;101936.19;4993766;28;20084;-45
2024/01/26 01:25:14;;;;;;;25.75;11.52;;;;;;;17.89;100.00;101943.47;4992342;28;20050;-49
2024/01/26 01:27:40;;;;;;;25.90;12.43;;;;;;;17.89;100.00;101935.03;4990510;28;20133;-46
2024/01/26 01:30:08;;;;;;;26.65;11.70;;;;;;;17.87;100.00;101937.50;4994287;28;20057;-47
2024/01/26 01:32:35;;;;;;;26.15;12.65;;;;;;;17.88;100.00;101936.25;4990735;28;20406;-46
2024/01/26 01:35:02;;;;;;;23.23;10.70;;;;;;;17.87;100.00;101920.63;4992019;28;20047;-44
2024/01/26 01:37:28;;;;;;;24.65;11.20;;;;;;;17.86;100.00;101932.31;4990422;28;20043;-45
2024/01/26 01:39:55;;;;;;;24.55;10.98;;;;;;;17.86;100.00;101935.13;4990087;28;20050;-46
2024/01/26 01:42:22;;;;;;;28.23;11.15;;;;;;;17.84;100.00;101924.31;4992088;28;20054;-46
2024/01/26 01:44:48;;;;;;;21.25;10.02;;;;;;;17.83;100.00;101931.19;4991533;28;20137;-49
2024/01/26 01:47:15;;;;;;;25.75;11.40;;;;;;;17.82;100.00;101926.00;4992867;28;20058;-47
2024/01/26 01:49:43;;;;;;;23.42;11.25;;;;;;;17.83;100.00;101936.00;4991465;28;20073;-49
2024/01/26 01:52:14;;;;;;;25.98;11.13;;;;;;;17.82;100.00;101931.63;4991513;28;20049;-50
2024/01/26 01:54:41;;;;;;;23.83;10.30;;;;;;;17.79;100.00;101926.88;4991126;28;20104;-48
2024/01/26 01:57:10;;;;;;;21.35;9.75;;;;;;;17.80;100.00;101934.06;4991099;28;20042;-46
2024/01/26 01:59:37;;;;;;;23.67;10.55;;;;;;;17.79;100.00;101921.22;4991426;28;20470;-48
2024/01/26 02:02:04;;;;;;;22.15;10.07;;;;;;;17.78;100.00;101923.25;4992943;28;20042;-48
2024/01/26 02:04:31;;;;;;;22.55;10.27;;;;;;;17.78;100.00;101914.81;4992511;28;20595;-49
2024/01/26 02:07:02;;;;;;;21.77;10.35;;;;;;;17.77;100.00;101913.22;4991177;28;20070;-47
2024/01/26 02:09:30;;;;;;;20.67;9.38;;;;;;;17.78;100.00;101914.03;4990560;28;20140;-45
2024/01/26 02:11:57;;;;;;;21.02;10.05;;;;;;;17.76;100.00;101905.22;4987345;28;20046;-47
2024/01/26 02:14:25;;;;;;;22.05;10.00;;;;;;;17.76;100.00;101908.03;4988823;28;20072;-47
2024/01/26 02:16:53;;;;;;;20.48;8.70;;;;;;;17.76;100.00;101896.78;4990249;28;20042;-47
2024/01/26 02:19:20;;;;;;;19.75;9.13;;;;;;;17.76;100.00;101899.59;4989950;28;20591;-47
2024/01/26 02:21:50;;;;;;;21.92;9.00;;;;;;;17.74;100.00;101897.22;4992800;28;20050;-46
2024/01/26 02:24:17;;;;;;;20.90;9.57;;;;;;;17.75;100.00;101898.03;4990583;28;20481;-49
2024/01/26 02:26:44;;;;;;;20.77;8.70;;;;;;;17.73;100.00;101889.22;4989732;28;20054;-47
2024/01/26 02:29:11;;;;;;;19.13;8.77;;;;;;;17.72;100.00;101893.28;4993325;28;20124;-47
2024/01/26 02:31:38;;;;;;;18.88;8.80;;;;;;;17.72;100.00;101896.09;4988682;28;20058;-46
2024/01/26 02:34:05;;;;;;;20.67;9.80;;;;;;;17.71;100.00;101902.94;4990616;28;20053;-45
2024/01/26 02:36:34;;;;;;;19.63;8.88;;;;;;;17.73;100.00;101898.47;4989554;28;20054;-47
2024/01/26 02:39:01;;;;;;;19.70;8.50;;;;;;;17.71;100.00;101900.13;4988691;28;20046;-48
2024/01/26 02:41:29;;;;;;;20.73;8.73;;;;;;;17.71;100.00;101897.31;4989708;28;20050;-47
2024/01/26 02:43:56;;;;;;;20.35;9.18;;;;;;;17.72;100.00;101905.31;4991675;28;20057;-46
2024/01/26 02:46:22;;;;;;;21.85;8.82;;;;;;;17.71;100.00;101898.09;4989563;28;20214;-48
2024/01/26 02:48:49;;;;;;;19.20;8.32;;;;;;;17.70;100.00;101898.53;4990051;28;20093;-47
2024/01/26 02:51:16;;;;;;;18.13;8.25;;;;;;;17.70;100.00;101899.34;4990807;28;20058;-48
2024/01/26 02:53:42;;;;;;;16.48;7.22;;;;;;;17.71;100.00;101880.44;4990034;28;20133;-48
2024/01/26 02:56:09;;;;;;;19.80;8.15;;;;;;;17.70;100.00;101884.47;4990003;28;20057;-46
2024/01/26 02:58:36;;;;;;;19.90;8.50;;;;;;;17.70;100.00;101864.78;4992028;28;20052;-48
2024/01/26 03:01:03;;;;;;;18.50;7.65;;;;;;;17.69;100.00;101868.84;4989122;28;20100;-47
2024/01/26 03:03:29;;;;;;;17.33;8.30;;;;;;;17.68;100.00;101870.84;4989348;28;20485;-49
2024/01/26 03:05:56;;;;;;;17.48;7.82;;;;;;;17.69;100.00;101860.41;4991675;28;20050;-49
2024/01/26 03:08:23;;;;;;;19.17;8.40;;;;;;;17.67;100.00;101866.47;4989043;28;20081;-48
2024/01/26 03:10:50;;;;;;;17.48;7.60;;;;;;;17.68;100.00;101868.03;4989549;28;20050;-47
2024/01/26 03:13:18;;;;;;;17.45;7.50;;;;;;;17.67;100.00;101871.28;4990195;28;20050;-46
2024/01/26 03:15:50;;;;;;;20.23;8.07;;;;;;;17.68;100.00;101875.72;4989567;28;20133;-45
2024/01/26 03:18:17;;;;;;;16.92;7.50;;;;;;;17.67;100.00;101865.66;4987772;28;20046;-47
2024/01/26 03:20:45;;;;;;;17.70;7.18;;;;;;;17.66;100.00;101873.31;4990006;28;20054;-48
2024/01/26 03:23:11;;;;;;;19.02;7.20;;;;;;;17.68;100.00;101870.06;4988513;28;20053;-48
2024/01/26 03:25:38;;;;;;;18.95;8.02;;;;;;;17.66;100.00;101861.28;4988846;28;20185;-47
2024/01/26 03:28:06;;;;;;;15.70;7.55;;;;;;;17.66;100.00;101853.66;4992640;28;20112;-47
2024/01/26 03:30:33;;;;;;;17.23;8.07;;;;;;;17.66;100.00;101848.03;4988847;28;20054;-47
2024/01/26 03:33:00;;;;;;;16.73;8.02;;;;;;;17.66;100.00;101845.22;4989350;28;20687;-48
2024/01/26 03:35:27;;;;;;;14.70;7.00;;;;;;;17.64;100.00;101844.84;4988300;28;20133;-48
2024/01/26 03:37:54;;;;;;;14.55;6.72;;;;;;;17.63;100.00;101845.28;4989017;28;20046;-48
2024/01/26 03:40:22;;;;;;;16.25;7.07;;;;;;;17.64;100.00;101844.03;4988889;28;20050;-48
2024/01/26 03:42:48;;;;;;;16.35;6.82;;;;;;;17.65;100.00;101837.22;4988988;28;20531;-47
2024/01/26 03:45:15;;;;;;;15.10;6.38;;;;;;;17.63;100.00;101820.78;4989519;28;20505;-49
2024/01/26 03:47:42;;;;;;;16.25;7.13;;;;;;;17.62;100.00;101821.22;4988501;28;20509;-45
2024/01/26 03:50:09;;;;;;;15.73;6.40;;;;;;;17.63;100.00;101822.78;4989038;28;20136;-47
2024/01/26 03:52:35;;;;;;;16.42;6.55;;;;;;;17.64;100.00;101813.09;4990295;28;20133;-49
2024/01/26 03:55:02;;;;;;;14.88;6.50;;;;;;;17.63;100.00;101819.97;4989937;28;20046;-46
2024/01/26 03:57:29;;;;;;;13.57;5.95;;;;;;;17.62;100.00;101819.16;4988192;28;20109;-49
2024/01/26 03:59:55;;;;;;;13.63;6.00;;;;;;;17.62;100.00;101815.59;4988769;28;20054;-46
2024/01/26 04:02:22;;;;;;;15.13;6.25;;;;;;;17.63;100.00;101822.78;4985679;28;20137;-47
2024/01/26 04:04:48;;;;;;;14.77;6.05;;;;;;;17.61;100.00;101814.00;4988934;28;20492;-47
2024/01/26 04:07:15;;;;;;;14.80;5.82;;;;;;;17.61;100.00;101814.00;4985012;28;20070;-51
2024/01/26 04:09:41;;;;;;;13.07;5.90;;;;;;;17.61;100.00;101814.00;4990390;28;20070;-44
2024/01/26 04:12:08;;;;;;;14.40;6.05;;;;;;;17.60;100.00;101801.97;4988613;28;20133;-48
2024/01/26 04:14:35;;;;;;;11.38;5.22;;;;;;;17.60;100.00;101785.09;4987952;28;20050;-47
2024/01/26 04:17:01;;;;;;;13.43;5.93;;;;;;;17.60;100.00;101784.28;4988532;28;20413;-45
2024/01/26 04:19:28;;;;;;;13.57;5.70;;;;;;;17.59;100.00;101777.09;4988302;28;20129;-46
2024/01/26 04:21:54;;;;;;;13.55;5.40;;;;;;;17.60;100.00;101767.41;4988898;28;20132;-45
2024/01/26 04:24:21;;;;;;;13.15;5.63;;;;;;;17.59;100.00;101763.03;4987290;28;20749;-46
2024/01/26 04:26:47;;;;;;;14.63;5.95;;;;;;;17.58;100.00;101748.19;4988431;28;20644;-49
2024/01/26 04:29:14;;;;;;;12.60;5.40;;;;;;;17.59;100.00;101746.16;4987530;28;20077;-46
2024/01/26 04:31:41;;;;;;;14.35;5.97;;;;;;;17.59;100.00;101755.41;4989559;28;20401;-45
2024/01/26 04:34:10;;;;;;;12.85;5.57;;;;;;;17.59;100.00;101751.78;4991440;28;20081;-47
2024/01/26 04:36:37;;;;;;;12.68;5.22;;;;;;;17.60;100.00;101736.50;4989448;28;20053;-46
2024/01/26 04:39:03;;;;;;;12.48;5.20;;;;;;;17.60;100.00;101733.69;4991928;28;20053;-47
2024/01/26 04:41:30;;;;;;;13.82;5.30;;;;;;;17.59;100.00;101726.47;4985672;28;20061;-53
2024/01/26 04:43:56;;;;;;;13.15;5.13;;;;;;;17.59;100.00;101716.03;4988125;28;20077;-46
2024/01/26 04:46:23;;;;;;;13.77;5.20;;;;;;;17.59;100.00;101712.44;4988394;28;20077;-48
2024/01/26 04:48:50;;;;;;;13.38;5.68;;;;;;;17.59;100.00;101704.00;4988205;28;20102;-49
2024/01/26 04:51:17;;;;;;;13.10;5.25;;;;;;;17.59;100.00;101698.38;4988839;28;20535;-46
2024/01/26 04:53:43;;;;;;;12.80;5.55;;;;;;;17.59;100.00;101715.22;4987926;28;20046;-48
2024/01/26 04:56:11;;;;;;;12.88;5.28;;;;;;;17.59;100.00;101706.81;4989042;28;20061;-48
2024/01/26 04:58:38;;;;;;;13.23;5.45;;;;;;;17.59;100.00;101695.56;4985092;28;20042;-47
2024/01/26 05:01:05;;;;;;;14.07;5.68;;;;;;;17.60;100.00;101702.75;4988140;28;20153;-45
2024/01/26 05:03:31;;;;;;;10.90;4.95;;;;;;;17.58;100.00;101689.13;4987901;28;20054;-48
2024/01/26 05:05:58;;;;;;;12.02;4.72;;;;;;;17.57;100.00;101684.75;4988362;28;20101;-47
2024/01/26 05:08:25;;;;;;;9.52;4.22;;;;;;;17.57;100.00;101689.56;4990506;28;20393;-49
2024/01/26 05:10:51;;;;;;;10.57;4.82;;;;;;;17.58;100.00;101693.97;4988078;28;20101;-47
2024/01/26 05:13:18;;;;;;;9.63;5.13;;;;;;;17.58;100.00;101688.34;4985241;28;20101;-47
2024/01/26 05:15:44;;;;;;;11.88;5.03;;;;;;;17.58;100.00;101693.97;4986936;28;20050;-46
2024/01/26 05:18:11;;;;;;;11.82;4.30;;;;;;;17.56;100.00;101699.25;4987912;28;20140;-45
2024/01/26 05:20:38;;;;;;;11.23;4.90;;;;;;;17.57;100.00;101695.19;4987561;28;20050;-48
2024/01/26 05:23:05;;;;;;;9.50;4.50;;;;;;;17.56;100.00;101682.38;4988162;28;20050;-44
2024/01/26 05:25:32;;;;;;;10.77;5.00;;;;;;;17.56;100.00;101685.19;4987898;28;20046;-48
2024/01/26 05:27:58;;;;;;;11.02;5.00;;;;;;;17.56;100.00;101688.78;4988555;28;20531;-47
2024/01/26 05:30:24;;;;;;;10.13;4.25;;;;;;;17.56;100.00;101688.00;4987494;28;20079;-48
2024/01/26 05:32:51;;;;;;;10.45;4.47;;;;;;;17.55;100.00;101692.06;4988973;28;20519;-47
2024/01/26 05:35:18;;;;;;;10.50;4.40;;;;;;;17.54;100.00;101684.81;4994735;28;20151;-45
2024/01/26 05:37:44;;;;;;;10.27;4.70;;;;;;;17.54;100.00;101676.38;4987529;28;20144;-49
2024/01/26 05:40:12;;;;;;;11.40;4.88;;;;;;;17.55;100.00;101678.00;4988533;28;20112;-47
2024/01/26 05:42:38;;;;;;;10.13;4.15;;;;;;;17.53;100.00;101684.06;4987849;28;20082;-47
2024/01/26 05:45:06;;;;;;;10.98;4.68;;;;;;;17.55;100.00;101669.56;4988405;28;20065;-48
2024/01/26 05:47:32;;;;;;;9.07;4.20;;;;;;;17.54;100.00;101654.69;4990908;28;20572;-49
2024/01/26 05:49:59;;;;;;;8.95;4.00;;;;;;;17.53;100.00;101639.06;4991025;28;20058;-48
2024/01/26 05:52:26;;;;;;;7.82;3.67;;;;;;;17.54;100.00;101637.03;4992051;28;20054;-47
2024/01/26 05:54:52;;;;;;;9.77;4.03;;;;;;;17.54;100.00;101640.63;4989809;28;20125;-45
2024/01/26 05:57:19;;;;;;;12.85;4.78;;;;;;;17.53;100.00;101638.28;4996636;28;20046;-46
2024/01/26 05:59:45;;;;;;;7.43;3.67;;;;;;;17.52;100.00;101631.06;4989824;28;20176;-47
2024/01/26 06:02:12;;;;;;;10.48;4.28;;;;;;;17.52;100.00;101637.50;4994676;28;20050;-46
2024/01/26 06:04:39;;;;;;;8.27;4.00;;;;;;;17.52;100.00;101642.31;4992154;28;20313;-46
2024/01/26 06:07:05;;;;;;;9.52;4.10;;;;;;;17.52;100.00;101631.88;4990214;28;20112;-46
2024/01/26 06:09:32;;;;;;;9.68;4.32;;;;;;;17.52;100.00;101629.06;4992092;28;20428;-45
2024/01/26 06:11:58;;;;;;;10.60;4.50;;;;;;;17.54;100.00;101623.78;4990749;28;20046;-48
2024/01/26 06:14:25;;;;;;;8.57;3.78;;;;;;;17.54;100.00;101617.34;4990839;28;20062;-46
2024/01/26 06:16:52;;;;;;;8.30;3.65;;;;;;;17.54;100.00;101606.91;4991929;28;20633;-48
2024/01/26 06:19:18;;;;;;;6.85;3.65;;;;;;;17.52;100.00;101600.16;4992968;28;20058;-46
2024/01/26 06:21:45;;;;;;;8.15;3.88;;;;;;;17.52;100.00;101605.78;4992700;28;20050;-46
2024/01/26 06:24:12;;;;;;;9.50;4.28;;;;;;;17.53;100.00;101607.34;4994247;28;20438;-45
2024/01/26 06:26:38;;;;;;;9.07;3.65;;;;;;;17.51;100.00;101593.72;4991174;28;20509;-50
2024/01/26 06:29:05;;;;;;;7.97;3.45;;;;;;;17.51;100.00;101596.53;4992667;28;20069;-46
2024/01/26 06:31:32;;;;;;;8.73;4.05;;;;;;;17.52;100.00;101602.97;4991727;28;20074;-46
2024/01/26 06:33:58;;;;;;;7.97;3.40;;;;;;;17.51;100.00;101590.91;5007801;28;20050;-46
2024/01/26 06:36:25;;;;;;;7.60;3.35;;;;;;;17.51;100.00;101585.28;4992964;28;20124;-46
2024/01/26 06:38:51;;;;;;;9.68;3.88;;;;;;;17.51;100.00;101579.66;4991105;28;20116;-47
2024/01/26 06:41:18;;;;;;;7.55;3.72;;;;;;;17.51;100.00;101567.66;4992336;28;20058;-47
2024/01/26 06:43:51;;;;;;;6.28;2.97;;;;;;;17.50;100.00;101575.28;4991434;28;20209;-46
2024/01/26 06:46:24;;;;;;;7.22;3.17;;;;;;;17.49;100.00;101579.34;4987340;28;20073;-46
2024/01/26 06:48:51;;;;;;;9.32;3.75;;;;;;;17.50;100.00;101575.28;4989694;28;20082;-47
2024/01/26 06:51:19;;;;;;;8.95;3.97;;;;;;;17.51;100.00;101574.06;4993576;28;20073;-46
2024/01/26 06:53:45;;;;;;;6.60;3.42;;;;;;;17.51;100.00;101579.66;4988210;28;20046;-48
2024/01/26 06:56:12;;;;;;;5.80;3.15;;;;;;;17.52;100.00;101574.84;4989929;28;20046;-49
2024/01/26 06:58:38;;;;;;;7.13;3.40;;;;;;;17.52;100.00;101563.59;4986872;28;20124;-47
2024/01/26 07:01:06;;;;;;;8.52;3.50;;;;;;;17.53;100.00;101562.34;4989943;28;20145;-50
2024/01/26 07:03:32;;;;;;;11.70;3.60;;;;;;;17.53;100.00;101556.72;4989021;28;20082;-48
2024/01/26 07:05:59;;;;;;;6.55;3.33;;;;;;;17.52;100.00;101563.59;4987263;28;20047;-48
2024/01/26 07:08:26;;;;;;;8.60;3.25;;;;;;;17.52;100.00;101552.34;4987585;28;20053;-46
2024/01/26 07:10:52;;;;;;;10.88;3.75;;;;;;;17.52;100.00;101536.28;4989177;28;20058;-48
2024/01/26 07:13:19;;;;;;;6.43;3.30;;;;;;;17.52;100.00;101538.31;4993795;28;20178;-46
2024/01/26 07:15:45;;;;;;;10.93;3.35;;;;;;;17.53;100.00;101542.69;4989524;28;20046;-48
2024/01/26 07:18:12;;;;;;;7.07;3.30;;;;;;;17.54;100.00;101533.00;4988319;28;20120;-45
2024/01/26 07:20:39;;;;;;;7.88;3.13;;;;;;;17.56;100.00;101536.97;4990484;28;20081;-49
2024/01/26 07:23:06;;;;;;;9.48;3.55;;;;;;;17.56;100.00;101530.53;4989525;28;20501;-48
2024/01/26 07:25:32;;;;;;;7.55;3.33;;;;;;;17.54;100.00;101527.38;4988275;28;20093;-51
2024/01/26 07:27:59;;;;;;;8.70;3.30;;;;;;;17.52;100.00;101525.03;4989099;28;20039;-51
2024/01/26 07:30:25;;;;;;;11.48;2.97;;;;;;;17.55;100.00;101520.53;4990038;28;20054;-49
2024/01/26 07:33:01;;;;;;;9.23;3.15;;;;;;;17.53;100.00;101529.41;4991119;28;20061;-47
2024/01/26 07:35:30;;;;;;;7.55;3.38;;;;;;;17.53;100.00;101531.44;4987406;28;20061;-50
2024/01/26 07:37:57;;;;;;;7.00;3.10;;;;;;;17.50;100.00;101527.50;4988595;28;20057;-48
2024/01/26 07:40:24;;;;;;;7.47;2.90;;;;;;;17.50;100.00;101521.88;4988501;28;20057;-47
2024/01/26 07:42:51;;;;;;;8.20;3.03;;;;;;;17.51;100.00;101520.63;4989607;28;20058;-51
2024/01/26 07:45:17;;;;;;;8.20;3.00;;;;;;;17.50;100.00;101527.50;4995427;28;20062;-50
2024/01/26 07:47:44;;;;;;;9.00;2.88;;;;;;;17.53;100.00;101531.44;4988355;28;20200;-47
2024/01/26 07:50:11;;;;;;;6.93;2.90;;;;;;;17.51;100.00;101536.72;4995298;28;20054;-46
2024/01/26 07:52:38;;;;;;;6.55;2.70;;;;;;;17.53;100.00;101534.25;4989430;28;20054;-48
2024/01/26 07:55:05;;;;;;;8.13;2.70;;;;;;;17.53;100.00;101539.88;4987713;28;20054;-47
2024/01/26 07:57:31;;;;;;;7.93;2.80;;;;;;;17.53;100.00;101539.88;4989235;28;20096;-51
2024/01/26 08:00:01;;;;;;;5.72;2.80;;;;;;;17.52;100.00;101536.28;4990499;28;20050;-50
2024/01/26 08:02:30;;;;;;;7.82;3.10;;;;;;;17.53;100.00;101540.66;4988410;28;20058;-50
2024/01/26 08:05:00;;;;;;;7.32;2.58;;;;;;;17.54;100.00;101535.81;4992297;28;20093;-48
2024/01/26 08:07:27;;;;;;;5.82;3.28;;;;;;;17.56;100.00;101531.34;4991822;28;20490;-45
2024/01/26 08:09:54;;;;;;;7.85;2.67;;;;;;;17.54;100.00;101524.56;4993265;28;20149;-48
2024/01/26 08:12:21;;;;;;;8.98;2.80;;;;;;;17.53;100.00;101523.00;5006629;28;20133;-48
2024/01/26 08:15:07;;;;;;;6.65;2.95;;;;;;;17.53;100.00;101511.75;4996918;28;20050;-46
2024/01/26 08:17:34;;;;;;;9.48;3.25;;;;;;;17.51;100.00;101514.25;4983521;28;20100;-47
2024/01/26 08:20:03;;;;;;;9.20;3.00;;;;;;;17.52;100.00;101513.78;4988483;28;20452;-45
2024/01/26 08:22:33;;;;;;;8.65;2.83;;;;;;;17.57;100.00;101509.63;5001452;28;20501;-49
2024/01/26 08:25:00;;;;;;;6.60;3.05;;;;;;;17.53;100.00;101520.19;4990370;28;20069;-46
2024/01/26 08:27:27;;;;;;;6.07;2.38;;;;;;;17.55;100.00;101521.31;4994502;28;20050;-46
2024/01/26 08:29:56;;;;;;;11.40;2.95;;;;;;;17.67;100.00;101502.88;4997274;28;20050;-45
2024/01/26 08:32:23;;;;;;;11.68;3.33;;;;;;;17.69;100.00;101501.22;4985216;28;20580;-48
2024/01/26 08:34:49;;;;;;;10.73;2.40;;;;;;;17.66;100.00;101492.88;4989640;28;20058;-43
2024/01/26 08:37:16;;;;;;;8.23;3.17;;;;;;;17.59;100.00;101495.91;4986875;28;20042;-50
2024/01/26 08:39:44;;;;;;;10.32;2.58;;;;;;;17.54;100.00;101496.44;4990482;28;20042;-48
2024/01/26 08:42:11;;;;;;;7.68;2.85;;;;;;;17.62;100.00;101500.66;4986816;28;20050;-46
2024/01/26 08:44:38;;;;;;;5.65;2.60;;;;;;;17.62;100.00;101503.47;4992647;28;20169;-48
2024/01/26 08:47:05;;;;;;;10.02;2.58;;;;;;;17.69;100.00;101503.25;4990283;28;20082;-47
2024/01/26 08:49:31;;;;;;;9.75;2.80;;;;;;;17.70;100.00;101513.25;4989951;28;20100;-46
2024/01/26 08:51:59;;;;;;;5.78;2.67;;;;;;;17.72;100.00;101534.06;4989237;28;20054;-48
2024/01/26 08:54:26;;;;;;;9.68;2.17;;;;;;;17.72;100.00;101530.47;4990188;28;20108;-47
2024/01/26 08:56:52;;;;;;;5.55;2.35;;;;;;;17.75;100.00;101538.03;4988938;28;20078;-47
2024/01/26 08:59:19;;;;;;;4.57;2.30;;;;;;;17.78;100.00;101539.94;4989650;28;20636;-46
2024/01/26 09:01:46;;;;;;;7.00;2.53;;;;;;;17.79;100.00;101541.50;4989878;28;20074;-47
2024/01/26 09:04:13;;;;;;;5.72;2.20;;;;;;;17.83;100.00;101536.56;4989181;28;20042;-48
2024/01/26 09:06:41;;;;;;;6.28;2.42;;;;;;;17.83;100.00;101550.63;4990056;28;20060;-47
2024/01/26 09:09:17;;;;;;;10.25;3.33;;;;;;;17.84;100.00;101566.25;4984424;28;20104;-47
2024/01/26 09:11:43;;;;;;;7.13;2.70;;;;;;;17.85;100.00;101550.97;4988369;28;20047;-49
2024/01/26 09:14:10;;;;;;;9.63;2.20;;;;;;;17.83;100.00;101545.78;4987804;28;20066;-47
2024/01/26 09:16:37;;;;;;;5.45;2.20;;;;;;;17.85;100.00;101548.16;4987335;28;20046;-48
2024/01/26 09:19:03;;;;;;;5.18;2.45;;;;;;;17.87;100.00;101540.84;4989658;28;20042;-47
2024/01/26 09:21:30;;;;;;;4.28;2.00;;;;;;;17.89;100.00;101548.84;4992572;28;20058;-47
2024/01/26 09:23:57;;;;;;;4.40;2.20;;;;;;;17.89;100.00;101535.53;4991843;28;20078;-47
2024/01/26 09:26:24;;;;;;;4.00;1.83;;;;;;;17.77;100.00;101527.09;4991719;28;20054;-49
2024/01/26 09:28:50;;;;;;;6.38;2.25;;;;;;;17.85;100.00;101526.44;4993252;28;20056;-46
2024/01/26 09:31:18;;;;;;;6.35;2.20;;;;;;;17.83;100.00;101531.75;4985970;28;20082;-48
2024/01/26 09:33:45;;;;;;;6.45;2.35;;;;;;;17.83;100.00;101519.69;4991910;28;20652;-48
2024/01/26 09:36:12;;;;;;;5.10;2.30;;;;;;;17.85;100.00;101531.28;4991734;28;20054;-46
2024/01/26 09:38:38;;;;;;;9.82;2.35;;;;;;;17.88;100.00;101516.31;4993027;28;20054;-46
2024/01/26 09:41:05;;;;;;;6.63;2.20;;;;;;;17.90;100.00;101525.88;4990823;28;20129;-50
2024/01/26 09:43:32;;;;;;;7.32;2.10;;;;;;;17.77;100.00;101513.03;4992819;28;20054;-45
2024/01/26 09:45:58;;;;;;;9.05;2.17;;;;;;;17.92;100.00;101502.94;4990973;28;20626;-46
2024/01/26 09:48:25;;;;;;;6.25;2.38;;;;;;;17.90;100.00;101506.19;4990914;28;20093;-46
2024/01/26 09:50:52;;;;;;;5.72;2.10;;;;;;;17.98;100.00;101507.56;4995953;28;20077;-50
2024/01/26 09:53:19;;;;;;;9.27;2.50;;;;;;;17.99;100.00;101508.38;4997920;28;20109;-47
2024/01/26 09:55:47;;;;;;;4.32;1.70;;;;;;;18.01;100.00;101509.50;5004732;28;20048;-49
2024/01/26 09:58:14;;;;;;;4.82;2.00;;;;;;;18.03;100.00;101509.84;4993977;28;20457;-48
2024/01/26 10:00:44;;;;;;;5.35;2.22;;;;;;;18.03;100.00;101504.22;4999998;28;20046;-47
2024/01/26 10:03:12;;;;;;;4.72;2.25;;;;;;;18.05;100.00;101507.34;4998165;28;20164;-47
2024/01/26 10:05:39;;;;;;;5.03;2.22;;;;;;;18.07;100.00;101504.88;4993104;28;20657;-46
2024/01/26 10:08:09;;;;;;;7.30;1.90;;;;;;;18.05;100.00;101492.47;4992511;28;20510;-49
2024/01/26 10:10:36;;;;;;;3.70;1.80;;;;;;;18.06;100.00;101506.09;4998190;28;20145;-49
2024/01/26 10:13:08;;;;;;;4.70;1.63;;;;;;;18.08;100.00;101505.66;4993221;28;20062;-46
2024/01/26 10:15:35;;;;;;;3.40;1.70;;;;;;;18.05;100.00;101506.56;4992725;28;20575;-46
2024/01/26 10:18:02;;;;;;;5.47;1.95;;;;;;;18.04;100.00;101504.97;4996694;28;20085;-48
2024/01/26 10:20:29;;;;;;;4.88;1.67;;;;;;;18.05;100.00;101507.34;5003563;28;20512;-45
2024/01/26 10:22:56;;;;;;;3.13;1.95;;;;;;;18.07;100.00;101513.31;5000639;28;20046;-46
2024/01/26 10:25:23;;;;;;;5.43;1.80;;;;;;;18.09;100.00;101508.00;4996876;28;20050;-47
2024/01/26 10:27:50;;;;;;;4.65;1.88;;;;;;;18.09;100.00;101508.00;5001252;28;20550;-45
2024/01/26 10:30:19;;;;;;;3.88;2.00;;;;;;;18.09;100.00;101513.66;4999675;28;20050;-46
2024/01/26 10:32:47;;;;;;;4.95;2.38;;;;;;;18.11;100.00;101527.25;5001292;28;20057;-46
2024/01/26 10:35:16;;;;;;;2.55;1.58;;;;;;;18.11;100.00;101525.25;4999033;28;21784;-49
2024/01/26 10:37:45;;;;;;;3.42;1.70;;;;;;;18.11;100.00;101544.94;4997189;28;20087;-47
2024/01/26 10:40:16;;;;;;;4.07;2.00;;;;;;;18.13;100.00;101548.09;4995288;28;20123;-51
2024/01/26 10:42:45;;;;;;;2.80;1.40;;;;;;;18.11;100.00;101547.75;4994728;28;20046;-47
2024/01/26 10:45:13;;;;;;;3.72;2.00;;;;;;;18.12;100.00;101554.97;4993856;28;20058;-44
2024/01/26 10:47:41;;;;;;;2.22;1.30;;;;;;;18.12;100.00;101551.38;4997537;28;20125;-45
2024/01/26 10:50:10;;;;;;;4.70;1.80;;;;;;;18.13;100.00;101558.56;4992333;28;20421;-47
2024/01/26 10:52:38;;;;;;;4.35;1.70;;;;;;;18.13;100.00;101569.81;4992040;28;20049;-45
2024/01/26 10:55:06;;;;;;;4.25;1.73;;;;;;;18.12;100.00;101571.06;5001253;28;20133;-48
2024/01/26 10:57:33;;;;;;;5.00;2.03;;;;;;;18.13;100.00;101598.75;5000337;28;20049;-48
2024/01/26 11:00:00;;;;;;;3.85;1.80;;;;;;;18.13;100.00;101609.22;4995513;28;20046;-46
2024/01/26 11:02:31;;;;;;;4.38;2.53;;;;;;;18.13;100.00;101621.25;4998481;28;20468;-45
2024/01/26 11:04:58;;;;;;;3.97;1.60;;;;;;;18.14;100.00;101627.69;4997598;28;20085;-46
2024/01/26 11:07:26;;;;;;;6.05;1.55;;;;;;;18.07;100.00;101639.16;4996459;28;20050;-46
2024/01/26 11:09:59;;;;;;;4.47;1.85;;;;;;;18.11;100.00;101648.28;4992735;28;20054;-46
2024/01/26 11:12:26;;;;;;;3.20;1.60;;;;;;;18.12;100.00;101647.06;4999445;28;20042;-45